»·PEaware :: N211BA KSBA-KLAS

N211BA :: KSBA-KLAS

FLIGHT INFORMATION

Flight Status: Arrived
Operator: Privately registered:
United States
More flights under this callsign
Pilot: Walter H. (552)
Aircraft: DEHAVILLAND DASH 8 100
(DH8A)
More flights by this aircraft type
Origin: KSBA Santa Barbara Mun
United States
Destination: KLAS McCarran Intl
United States
More flights between these airports :: More routes between these airports
Route: +KWANG5 GINNA DAG CRESO3
File this flight plan on PilotEdge
Remarks:
Altitude:
(Current/Filed)
6,000ft
Speed:
(Current/Filed)
220kts
Departed: 29-Dec-15 12:59 PM
Arrived: 29-Dec-15 02:00 PM
Distance/Time
Traveled:
250nm/1:01
Distance/Time
To Go:
Arrived

Flight Plot

Page will automatically refresh every two minutes.


Map Options




Map Legend


Flown Route
Filed Route
Departure Airport
Arrival Airport
Navaid (VOR, NDB)
Fix

Horizontal Profiles

Position Reports

Time Latitude Longitude Heading Altitude Ground
Speed
29-Dec-15 12:26 34.426028 -119.836647 189 17ft 0kts
29-Dec-15 12:27 34.426028 -119.836647 189 17ft 0kts
29-Dec-15 12:28 34.426028 -119.836647 189 17ft 0kts
29-Dec-15 12:29 34.426028 -119.836647 189 17ft 0kts
29-Dec-15 12:30 34.426028 -119.836647 189 17ft 0kts
29-Dec-15 12:31 34.426028 -119.836647 189 17ft 0kts
29-Dec-15 12:32 34.426028 -119.836647 189 17ft 0kts
29-Dec-15 12:33 34.426028 -119.836647 189 17ft 0kts
29-Dec-15 12:34 34.426028 -119.836647 189 17ft 0kts
29-Dec-15 12:35 34.426028 -119.836647 189 17ft 0kts
29-Dec-15 12:36 34.426028 -119.836647 189 17ft 0kts
29-Dec-15 12:37 34.426028 -119.836647 189 17ft 0kts
29-Dec-15 12:38 34.426028 -119.836647 189 17ft 0kts
29-Dec-15 12:39 34.426028 -119.836647 189 17ft 0kts
29-Dec-15 12:40 34.426028 -119.836647 189 17ft 0kts
29-Dec-15 12:41 34.426028 -119.836647 189 17ft 0kts
29-Dec-15 12:42 34.426028 -119.836647 189 17ft 0kts
29-Dec-15 12:43 34.426028 -119.836647 189 17ft 0kts
29-Dec-15 12:44 34.426028 -119.836647 189 17ft 0kts
29-Dec-15 12:45 34.426028 -119.836647 189 17ft 0kts
29-Dec-15 12:46 34.426028 -119.836647 189 17ft 0kts
29-Dec-15 12:47 34.426028 -119.836647 189 17ft 0kts
29-Dec-15 12:48 34.426028 -119.836647 189 17ft 0kts
29-Dec-15 12:49 34.426603 -119.836538 188 17ft 0kts
29-Dec-15 12:50 34.426611 -119.836537 190 17ft 0kts
29-Dec-15 12:51 34.426564 -119.836654 249 17ft 0kts
29-Dec-15 12:52 34.426764 -119.835554 90 17ft 13kts
29-Dec-15 12:53 34.427048 -119.834648 15 17ft 0kts
29-Dec-15 12:54 34.427732 -119.834732 331 17ft 5kts
29-Dec-15 12:55 34.427393 -119.858149 264 234ft 167kts
29-Dec-15 12:56 34.421045 -119.920884 254 2775ft 194kts
29-Dec-15 12:57 34.374742 -119.951459 151 4934ft 241kts
29-Dec-15 12:58 34.359483 -119.876444 81 7474ft 252kts
29-Dec-15 12:59 34.365666 -119.791610 80 10074ft 245kts
29-Dec-15 13:00 34.378682 -119.712466 69 12165ft 235kts
29-Dec-15 13:01 34.392815 -119.635983 67 13911ft 233kts
29-Dec-15 13:02 34.407556 -119.559609 65 15459ft 234kts
29-Dec-15 13:03 34.415444 -119.519023 65 16050ft 232kts
29-Dec-15 13:04 34.431233 -119.438712 65 17098ft 251kts
29-Dec-15 13:05 34.447644 -119.354790 64 18295ft 257kts
29-Dec-15 13:06 34.461329 -119.284289 63 19208ft 253kts
29-Dec-15 13:07 34.475225 -119.213806 63 19957ft 256kts
29-Dec-15 13:08 34.492302 -119.127664 64 20911ft 264kts
29-Dec-15 13:09 34.509665 -119.039392 65 21661ft 276kts
29-Dec-15 13:10 34.527823 -118.946677 65 22471ft 282kts
29-Dec-15 13:11 34.546065 -118.852816 65 23255ft 286kts
29-Dec-15 13:12 34.564481 -118.757894 66 23995ft 289kts
29-Dec-15 13:13 34.582940 -118.661997 66 24688ft 292kts
29-Dec-15 13:14 34.601637 -118.564702 66 25056ft 306kts
29-Dec-15 13:15 34.621779 -118.460739 67 25077ft 326kts
29-Dec-15 13:16 34.642794 -118.350889 67 25087ft 340kts
29-Dec-15 13:17 34.664251 -118.237460 68 25096ft 348kts
29-Dec-15 13:18 34.685788 -118.122603 68 25097ft 354kts
29-Dec-15 13:19 34.707476 -118.006056 68 25093ft 357kts
29-Dec-15 13:20 34.728372 -117.888314 67 25088ft 360kts
29-Dec-15 13:21 34.750143 -117.769386 67 25084ft 361kts
29-Dec-15 13:22 34.772038 -117.649867 67 25083ft 362kts
29-Dec-15 13:23 34.793825 -117.530183 67 25084ft 362kts
29-Dec-15 13:24 34.815400 -117.410866 67 25085ft 363kts
29-Dec-15 13:25 34.836911 -117.290956 67 25082ft 363kts
29-Dec-15 13:26 34.858364 -117.170850 67 25083ft 363kts
29-Dec-15 13:27 34.879498 -117.050658 68 24925ft 369kts
29-Dec-15 13:28 34.901491 -116.926002 68 24325ft 381kts
29-Dec-15 13:29 34.923704 -116.800141 68 24201ft 377kts
29-Dec-15 13:30 34.945319 -116.675869 68 24101ft 373kts
29-Dec-15 13:31 34.970617 -116.555126 53 24090ft 352kts
29-Dec-15 13:32 35.018428 -116.453359 50 23724ft 348kts
29-Dec-15 13:33 35.064277 -116.349021 50 21913ft 349kts
29-Dec-15 13:34 35.109325 -116.247109 50 20135ft 342kts
29-Dec-15 13:35 35.153844 -116.146109 51 18336ft 334kts
29-Dec-15 13:36 35.197577 -116.047175 52 16534ft 328kts
29-Dec-15 13:37 35.239680 -115.951699 54 14728ft 311kts
29-Dec-15 13:38 35.279784 -115.859906 56 12924ft 300kts
29-Dec-15 13:39 35.320072 -115.774024 46 12058ft 278kts
29-Dec-15 13:40 35.371041 -115.706494 42 12032ft 263kts
29-Dec-15 13:41 35.421380 -115.643762 35 11840ft 258kts
29-Dec-15 13:42 35.481815 -115.588635 32 10541ft 278kts
29-Dec-15 13:43 35.545388 -115.534326 32 9239ft 276kts
29-Dec-15 13:44 35.607258 -115.482739 32 7951ft 268kts
29-Dec-15 13:45 35.664207 -115.435097 32 7078ft 229kts
29-Dec-15 13:46 35.709696 -115.396403 32 7054ft 187kts
29-Dec-15 13:47 35.753497 -115.360911 28 7043ft 191kts
29-Dec-15 13:48 35.800797 -115.329433 24 7043ft 194kts
29-Dec-15 13:49 35.849128 -115.300512 23 7042ft 192kts
29-Dec-15 13:50 35.897369 -115.272522 23 6450ft 191kts
29-Dec-15 13:51 35.945137 -115.245015 23 5316ft 185kts
29-Dec-15 13:52 35.990904 -115.219022 24 4243ft 161kts
29-Dec-15 13:53 36.026883 -115.198082 24 3353ft 125kts
29-Dec-15 13:54 36.057604 -115.180166 21 2658ft 121kts
29-Dec-15 13:55 36.086241 -115.164007 24 2122ft 66kts
29-Dec-15 13:56 36.088043 -115.159811 113 2122ft 19kts
29-Dec-15 13:57 36.087205 -115.157555 109 2122ft 8kts
29-Dec-15 13:58 36.086137 -115.154911 144 2122ft 6kts
29-Dec-15 13:59 36.085807 -115.154656 148 2122ft 0kts
29-Dec-15 14:00 36.085807 -115.154656 148 2122ft 0kts
29-Dec-15 14:01 36.085807 -115.154656 148 2122ft 0kts

Navigation Log

Ident Type
Flight plan parsing failed, navigation log unavailable